createdAt,value
2017-04-16T00:00:54.644Z,8.1
2017-04-16T00:01:54.374Z,8.11
2017-04-16T00:02:54.430Z,8.07
2017-04-16T00:03:54.769Z,8.12
2017-04-16T00:04:54.782Z,8.1
2017-04-16T00:05:54.512Z,8.08
2017-04-16T00:06:54.857Z,8.04
2017-04-16T00:07:54.586Z,8.12
2017-04-16T00:08:55.225Z,7.99
2017-04-16T00:09:54.650Z,8.08
2017-04-16T00:10:54.989Z,8.02
2017-04-16T00:11:55.325Z,8.14
2017-04-16T00:12:55.062Z,8.11
2017-04-16T00:13:55.086Z,8.14
2017-04-16T00:14:55.133Z,8.12
2017-04-16T00:15:55.194Z,8.08
2017-04-16T00:16:54.900Z,8.02
2017-04-16T00:17:55.246Z,7.97
2017-04-16T00:18:54.956Z,8
2017-04-16T00:19:55.597Z,8.04
2017-04-16T00:20:55.325Z,8.17
2017-04-16T00:21:55.057Z,8.02
2017-04-16T00:22:55.409Z,8.08
2017-04-16T00:23:55.125Z,8.14
2017-04-16T00:24:55.461Z,8.07
2017-04-16T00:25:55.198Z,8.08
2017-04-16T00:26:55.227Z,8.11
2017-04-16T00:27:55.277Z,8.1
2017-04-16T00:28:55.609Z,8.04
2017-04-16T00:29:55.332Z,7.97
2017-04-16T00:30:55.666Z,8.08
2017-04-16T00:31:55.700Z,7.96
2017-04-16T00:32:56.042Z,8.07
2017-04-16T00:33:55.805Z,8.08
2017-04-16T00:34:55.806Z,8.1
2017-04-16T00:35:55.852Z,8.14
2017-04-16T00:36:55.570Z,8.1
2017-04-16T00:37:55.904Z,7.92
2017-04-16T00:38:55.638Z,8.08
2017-04-16T00:39:55.977Z,8.02
2017-04-16T00:40:56.026Z,8.08
2017-04-16T00:41:55.743Z,8.03
2017-04-16T00:42:56.080Z,8.11
2017-04-16T00:43:56.114Z,8.08
2017-04-16T00:44:56.145Z,8
2017-04-16T00:45:56.178Z,8.02
2017-04-16T00:46:55.908Z,7.94
2017-04-16T00:47:56.251Z,8.12
2017-04-16T00:48:55.984Z,7.93
2017-04-16T00:49:56.616Z,8.02
2017-04-16T00:50:56.046Z,8.1
2017-04-16T00:51:56.079Z,8.07
2017-04-16T00:52:56.419Z,7.97
2017-04-16T00:53:56.146Z,8
2017-04-16T00:54:56.485Z,7.96
2017-04-16T00:55:56.523Z,7.99
2017-04-16T00:56:56.551Z,7.96
2017-04-16T00:57:56.292Z,7.94
2017-04-16T00:58:56.322Z,7.94
2017-04-16T00:59:56.656Z,7.96
2017-04-16T01:00:56.550Z,7.96
2017-04-16T01:01:56.431Z,7.94
2017-04-16T01:02:56.761Z,7.93
2017-04-16T01:03:56.794Z,7.92
2017-04-16T01:04:56.829Z,7.97
2017-04-16T01:05:56.572Z,8
2017-04-16T01:06:56.893Z,7.92
2017-04-16T01:07:57.236Z,7.93
2017-04-16T01:08:56.659Z,7.97
2017-04-16T01:09:57.301Z,7.94
2017-04-16T01:10:56.731Z,7.94
2017-04-16T01:11:57.073Z,7.96
2017-04-16T01:12:56.797Z,7.92
2017-04-16T01:13:57.436Z,7.89
2017-04-16T01:14:57.171Z,7.85
2017-04-16T01:15:56.908Z,7.82
2017-04-16T01:16:56.931Z,7.87
2017-04-16T01:17:56.964Z,7.87
2017-04-16T01:18:57.302Z,7.82
2017-04-16T01:19:57.651Z,7.87
2017-04-16T01:20:57.069Z,7.75
2017-04-16T01:21:57.104Z,7.72
2017-04-16T01:22:57.745Z,7.63
2017-04-16T01:23:57.170Z,7.71
2017-04-16T01:24:57.206Z,7.62
2017-04-16T01:25:57.237Z,7.6
2017-04-16T01:26:57.273Z,7.6
2017-04-16T01:27:57.606Z,7.63
2017-04-16T01:28:57.948Z,7.59
2017-04-16T01:29:57.677Z,7.55
2017-04-16T01:30:57.708Z,7.5
2017-04-16T01:31:57.746Z,7.49
2017-04-16T01:32:57.782Z,7.55
2017-04-16T01:33:57.824Z,7.5
2017-04-16T01:34:58.147Z,7.56
2017-04-16T01:35:57.579Z,7.45
2017-04-16T01:36:57.916Z,7.53
2017-04-16T01:37:58.095Z,7.45
2017-04-16T01:38:57.679Z,7.52
2017-04-16T01:39:57.709Z,7.49
2017-04-16T01:40:57.745Z,7.47
2017-04-16T01:41:58.078Z,7.42
2017-04-16T01:42:58.114Z,7.4
2017-04-16T01:43:58.164Z,7.41
2017-04-16T01:44:58.480Z,7.37
2017-04-16T01:45:58.213Z,7.41
2017-04-16T01:46:58.088Z,7.44
2017-04-16T01:47:58.595Z,7.37
2017-04-16T01:48:58.327Z,7.38
2017-04-16T01:49:58.652Z,7.32
2017-04-16T01:50:58.380Z,7.29
2017-04-16T01:51:58.413Z,7.24
2017-04-16T01:52:58.449Z,7.31
2017-04-16T01:53:58.483Z,7.23
2017-04-16T01:54:58.216Z,7.24
2017-04-16T01:55:58.427Z,7.27
2017-04-16T01:56:58.282Z,7.23
2017-04-16T01:57:58.318Z,7.23
2017-04-16T01:58:58.660Z,7.22
2017-04-16T01:59:58.381Z,7.24
2017-04-16T02:00:58.413Z,7.24
2017-04-16T02:01:58.448Z,7.27
2017-04-16T02:02:58.784Z,7.19
2017-04-16T02:03:58.818Z,7.12
2017-04-16T02:04:58.550Z,7.13
2017-04-16T02:05:58.581Z,7.12
2017-04-16T02:06:58.917Z,7.12
2017-04-16T02:07:58.961Z,7.09
2017-04-16T02:08:58.681Z,7.13
2017-04-16T02:09:59.023Z,7.02
2017-04-16T02:10:58.762Z,7.08
2017-04-16T02:11:58.783Z,7.05
2017-04-16T02:12:58.819Z,7.05
2017-04-16T02:13:59.153Z,7.05
2017-04-16T02:14:58.885Z,7.02
2017-04-16T02:15:58.918Z,7.08
2017-04-16T02:16:59.252Z,7.04
2017-04-16T02:17:58.986Z,6.98
2017-04-16T02:18:59.020Z,6.95
2017-04-16T02:19:59.659Z,6.95
2017-04-16T02:20:59.084Z,7.02
2017-04-16T02:21:59.123Z,7.04
2017-04-16T02:22:59.466Z,7.01
2017-04-16T02:23:59.792Z,7.01
2017-04-16T02:24:59.214Z,7.07
2017-04-16T02:25:59.255Z,7.07
2017-04-16T02:26:59.892Z,7.08
2017-04-16T02:27:59.631Z,6.9
2017-04-16T02:28:59.657Z,7.04
2017-04-16T02:29:59.993Z,6.95
2017-04-16T02:30:59.736Z,7.04
2017-04-16T02:31:59.788Z,6.95
2017-04-16T02:33:00.092Z,6.84
2017-04-16T02:33:59.525Z,6.89
2017-04-16T02:34:59.553Z,6.86
2017-04-16T02:35:59.886Z,6.89
2017-04-16T02:36:59.918Z,6.86
2017-04-16T02:37:59.953Z,6.8
2017-04-16T02:38:59.684Z,6.84
2017-04-16T02:39:59.724Z,6.89
2017-04-16T02:40:59.751Z,6.81
2017-04-16T02:41:59.785Z,6.8
2017-04-16T02:43:00.420Z,6.8
2017-04-16T02:44:00.153Z,6.79
2017-04-16T02:44:59.882Z,6.68
2017-04-16T02:45:59.919Z,6.71
2017-04-16T02:46:59.954Z,6.68
2017-04-16T02:48:00.590Z,6.71
2017-04-16T02:49:00.331Z,6.65
2017-04-16T02:50:00.670Z,6.65
2017-04-16T02:51:00.093Z,6.65
2017-04-16T02:52:00.730Z,6.56
2017-04-16T02:53:00.759Z,6.63
2017-04-16T02:54:00.490Z,6.69
2017-04-16T02:55:00.552Z,6.59
2017-04-16T02:56:00.550Z,6.65
2017-04-16T02:57:00.901Z,6.62
2017-04-16T02:58:00.644Z,6.62
2017-04-16T02:59:00.654Z,6.59
2017-04-16T03:00:00.691Z,6.66
2017-04-16T03:01:00.413Z,6.66
2017-04-16T03:02:00.782Z,6.59
2017-04-16T03:03:00.499Z,6.65
2017-04-16T03:04:00.821Z,6.65
2017-04-16T03:05:00.850Z,6.65
2017-04-16T03:06:00.582Z,6.68
2017-04-16T03:07:00.611Z,6.59
2017-04-16T03:08:00.658Z,6.5
2017-04-16T03:09:00.680Z,6.56
2017-04-16T03:10:01.030Z,6.58
2017-04-16T03:11:00.745Z,6.58
2017-04-16T03:12:01.088Z,6.53
2017-04-16T03:13:01.415Z,6.5
2017-04-16T03:14:00.864Z,6.61
2017-04-16T03:15:00.878Z,6.61
2017-04-16T03:16:00.911Z,6.5
2017-04-16T03:17:00.951Z,6.54
2017-04-16T03:18:01.283Z,6.44
2017-04-16T03:19:01.315Z,6.48
2017-04-16T03:20:01.355Z,6.43
2017-04-16T03:21:01.585Z,6.53
2017-04-16T03:22:01.411Z,6.51
2017-04-16T03:23:01.155Z,6.54
2017-04-16T03:24:01.190Z,6.48
2017-04-16T03:25:01.209Z,6.53
2017-04-16T03:26:01.249Z,6.41
2017-04-16T03:27:01.276Z,6.47
2017-04-16T03:28:01.609Z,6.43
2017-04-16T03:29:01.650Z,6.4
2017-04-16T03:30:01.682Z,6.44
2017-04-16T03:31:01.406Z,6.44
2017-04-16T03:32:01.449Z,6.5
2017-04-16T03:33:01.783Z,6.38
2017-04-16T03:34:02.113Z,6.51
2017-04-16T03:35:01.849Z,6.5
2017-04-16T03:36:01.876Z,6.51
2017-04-16T03:37:01.603Z,6.61
2017-04-16T03:38:01.945Z,6.51
2017-04-16T03:39:01.975Z,6.58
2017-04-16T03:40:01.712Z,6.59
2017-04-16T03:41:02.041Z,6.56
2017-04-16T03:42:01.791Z,6.66
2017-04-16T03:43:02.111Z,6.61
2017-04-16T03:44:02.442Z,6.65
2017-04-16T03:45:02.171Z,6.62
2017-04-16T03:46:01.902Z,6.63
2017-04-16T03:47:01.936Z,6.58
2017-04-16T03:48:02.271Z,6.54
2017-04-16T03:49:02.307Z,6.54
2017-04-16T03:50:02.338Z,6.65
2017-04-16T03:51:02.076Z,6.56
2017-04-16T03:52:02.101Z,6.62
2017-04-16T03:53:02.438Z,6.58
2017-04-16T03:54:02.468Z,6.56
2017-04-16T03:55:02.805Z,6.5
2017-04-16T03:56:02.534Z,6.61
2017-04-16T03:57:02.269Z,6.59
2017-04-16T03:58:02.607Z,6.56
2017-04-16T03:59:02.639Z,6.61
2017-04-16T04:00:02.668Z,6.56
2017-04-16T04:01:02.398Z,6.51
2017-04-16T04:02:03.037Z,6.5
2017-04-16T04:03:03.079Z,6.44
2017-04-16T04:04:02.506Z,6.46
2017-04-16T04:05:02.537Z,6.47
2017-04-16T04:06:02.561Z,6.47
2017-04-16T04:07:02.898Z,6.47
2017-04-16T04:08:02.943Z,6.44
2017-04-16T04:09:02.663Z,6.47
2017-04-16T04:10:03.019Z,6.51
2017-04-16T04:11:02.749Z,6.46
2017-04-16T04:12:03.064Z,6.53
2017-04-16T04:13:02.796Z,6.54
2017-04-16T04:14:02.828Z,6.5
2017-04-16T04:15:02.859Z,6.46
2017-04-16T04:16:02.896Z,6.41
2017-04-16T04:17:02.951Z,6.38
2017-04-16T04:18:03.276Z,6.4
2017-04-16T04:19:03.325Z,6.5
2017-04-16T04:20:03.025Z,6.44
2017-04-16T04:21:03.057Z,6.53
2017-04-16T04:22:03.092Z,6.5
2017-04-16T04:23:03.127Z,6.47
2017-04-16T04:24:03.463Z,6.46
2017-04-16T04:25:03.492Z,6.47
2017-04-16T04:26:03.233Z,6.53
2017-04-16T04:27:03.559Z,6.44
2017-04-16T04:28:03.902Z,6.58
2017-04-16T04:29:03.628Z,6.51
2017-04-16T04:30:03.357Z,6.44
2017-04-16T04:31:03.415Z,6.5
2017-04-16T04:32:03.428Z,6.59
2017-04-16T04:33:04.067Z,6.54
2017-04-16T04:34:03.794Z,6.62
2017-04-16T04:35:03.527Z,6.58
2017-04-16T04:36:03.857Z,6.53
2017-04-16T04:37:03.889Z,6.53
2017-04-16T04:38:03.626Z,6.54
2017-04-16T04:39:03.714Z,6.59
2017-04-16T04:40:03.685Z,6.56
2017-04-16T04:41:04.026Z,6.53
2017-04-16T04:42:04.056Z,6.5
2017-04-16T04:43:03.787Z,6.48
2017-04-16T04:44:04.138Z,6.38
2017-04-16T04:45:03.853Z,6.47
2017-04-16T04:46:03.882Z,6.41
2017-04-16T04:47:03.920Z,6.41
2017-04-16T04:48:04.258Z,6.54
2017-04-16T04:49:03.989Z,6.5
2017-04-16T04:50:04.045Z,6.51
2017-04-16T04:51:04.050Z,6.59
2017-04-16T04:52:04.384Z,6.56
2017-04-16T04:53:04.119Z,6.59
2017-04-16T04:54:04.470Z,6.69
2017-04-16T04:55:04.491Z,6.71
2017-04-16T04:56:04.229Z,6.73
2017-04-16T04:57:04.557Z,6.71
2017-04-16T04:58:04.583Z,6.72
2017-04-16T04:59:04.619Z,6.79
2017-04-16T05:00:04.656Z,6.84
2017-04-16T05:01:04.384Z,6.81
2017-04-16T05:02:04.719Z,6.91
2017-04-16T05:03:04.450Z,6.99
2017-04-16T05:04:04.486Z,7.07
2017-04-16T05:05:04.537Z,7.05
2017-04-16T05:06:04.852Z,7.15
2017-04-16T05:07:04.586Z,7.15
2017-04-16T05:08:04.612Z,7.15
2017-04-16T05:09:04.660Z,7.08
2017-04-16T05:10:04.684Z,7.23
2017-04-16T05:11:05.121Z,7.22
2017-04-16T05:12:04.750Z,7.26
2017-04-16T05:13:05.089Z,7.23
2017-04-16T05:14:05.132Z,7.24
2017-04-16T05:15:04.854Z,7.37
2017-04-16T05:16:04.884Z,7.52
2017-04-16T05:17:04.919Z,7.62
2017-04-16T05:18:04.953Z,7.87
2017-04-16T05:19:05.600Z,7.94
2017-04-16T05:20:05.021Z,8.08
2017-04-16T05:21:05.358Z,8.2
2017-04-16T05:22:05.087Z,8.28
2017-04-16T05:23:05.425Z,8.22
2017-04-16T05:24:05.758Z,8.35
2017-04-16T05:25:05.488Z,8.37
2017-04-16T05:26:05.254Z,8.62
2017-04-16T05:27:05.556Z,8.86
2017-04-16T05:28:05.897Z,9.43
2017-04-16T05:29:05.640Z,10.06
2017-04-16T05:30:05.369Z,10.74
2017-04-16T05:31:05.395Z,11.41
2017-04-16T05:32:05.736Z,12.19
2017-04-16T05:33:05.771Z,12.63
2017-04-16T05:34:05.507Z,13.14
2017-04-16T05:35:05.541Z,13.63
2017-04-16T05:36:05.884Z,14.2
2017-04-16T05:37:05.664Z,14.65
2017-04-16T05:38:06.129Z,15.19
2017-04-16T05:39:05.988Z,15.78
2017-04-16T05:40:05.736Z,16.12
2017-04-16T05:41:05.767Z,16.63
2017-04-16T05:42:05.797Z,16.83
2017-04-16T05:43:05.841Z,16.7
2017-04-16T05:44:06.184Z,16.56
2017-04-16T05:45:05.917Z,16.35
2017-04-16T05:46:06.253Z,16.52
2017-04-16T05:47:06.297Z,16.78
2017-04-16T05:48:06.634Z,17.2
2017-04-16T05:49:06.074Z,17.47
2017-04-16T05:50:06.715Z,17.92
2017-04-16T05:51:06.152Z,18.03
2017-04-16T05:52:06.497Z,18.4
2017-04-16T05:53:06.543Z,18.44
2017-04-16T05:54:06.575Z,18.8
2017-04-16T05:55:06.314Z,18.87
2017-04-16T05:56:06.348Z,19.08
2017-04-16T05:57:06.692Z,18.72
2017-04-16T05:58:06.755Z,18.31
2017-04-16T05:59:06.472Z,17.67
2017-04-16T06:00:06.815Z,17
2017-04-16T06:01:06.551Z,16.34
2017-04-16T06:02:06.591Z,15.78
2017-04-16T06:03:06.628Z,15.42
2017-04-16T06:04:06.668Z,15.19
2017-04-16T06:05:07.014Z,14.99
2017-04-16T06:06:06.754Z,14.88
2017-04-16T06:07:07.109Z,14.5
2017-04-16T06:08:06.851Z,14.35
2017-04-16T06:09:06.872Z,14.24
2017-04-16T06:10:06.908Z,14.09
2017-04-16T06:11:06.980Z,13.88
2017-04-16T06:12:07.008Z,13.69
2017-04-16T06:13:07.330Z,13.3
2017-04-16T06:14:07.073Z,13.06
2017-04-16T06:15:07.103Z,12.74
2017-04-16T06:16:07.140Z,12.27
2017-04-16T06:17:07.176Z,12.11
2017-04-16T06:18:07.517Z,12.04
2017-04-16T06:19:07.562Z,11.82
2017-04-16T06:20:07.292Z,11.9
2017-04-16T06:21:07.936Z,11.9
2017-04-16T06:22:07.366Z,11.9
2017-04-16T06:23:07.706Z,11.83
2017-04-16T06:24:07.747Z,11.64
2017-04-16T06:25:07.780Z,11.56
2017-04-16T06:26:07.827Z,11.41
2017-04-16T06:27:07.853Z,11.34
2017-04-16T06:28:07.591Z,11.1
2017-04-16T06:29:07.932Z,10.94
2017-04-16T06:30:07.667Z,10.95
2017-04-16T06:31:08.005Z,10.78
2017-04-16T06:32:07.740Z,10.71
2017-04-16T06:33:08.387Z,10.59
2017-04-16T06:34:07.810Z,10.55
2017-04-16T06:35:07.846Z,10.44
2017-04-16T06:36:07.975Z,10.3
2017-04-16T06:37:07.920Z,10.14
2017-04-16T06:38:08.559Z,10.14
2017-04-16T06:39:07.997Z,10.1
2017-04-16T06:40:08.033Z,9.97
2017-04-16T06:41:08.365Z,9.96
2017-04-16T06:42:08.098Z,9.94
2017-04-16T06:43:08.454Z,9.91
2017-04-16T06:44:08.220Z,9.91
2017-04-16T06:45:08.207Z,9.86
2017-04-16T06:46:08.565Z,9.86
2017-04-16T06:47:08.277Z,9.86
2017-04-16T06:48:08.617Z,9.89
2017-04-16T06:49:08.956Z,9.94
2017-04-16T06:50:08.695Z,9.88
2017-04-16T06:51:09.028Z,10.04
2017-04-16T06:52:08.462Z,10.18
2017-04-16T06:53:08.501Z,10.28
2017-04-16T06:54:08.836Z,10.43
2017-04-16T06:55:08.567Z,10.62
2017-04-16T06:56:08.600Z,10.66
2017-04-16T06:57:08.942Z,10.8
2017-04-16T06:58:09.025Z,10.84
2017-04-16T06:59:08.713Z,10.78
2017-04-16T07:00:09.048Z,10.86
2017-04-16T07:01:09.111Z,10.71
2017-04-16T07:02:08.820Z,10.68
2017-04-16T07:03:08.869Z,10.56
2017-04-16T07:04:09.201Z,10.46
2017-04-16T07:05:08.933Z,10.37
2017-04-16T07:06:09.271Z,10.33
2017-04-16T07:07:09.313Z,10.34
2017-04-16T07:08:09.039Z,10.19
2017-04-16T07:09:09.710Z,10.18
2017-04-16T07:10:09.143Z,10.07
2017-04-16T07:11:09.146Z,9.97
2017-04-16T07:12:09.182Z,9.94
2017-04-16T07:13:09.519Z,9.85
2017-04-16T07:14:09.569Z,9.83
2017-04-16T07:15:09.293Z,9.75
2017-04-16T07:16:09.327Z,9.83
2017-04-16T07:17:09.361Z,9.76
2017-04-16T07:18:09.715Z,9.75
2017-04-16T07:19:09.737Z,9.81
2017-04-16T07:20:09.478Z,9.7
2017-04-16T07:21:09.809Z,9.71
2017-04-16T07:22:09.845Z,9.6
2017-04-16T07:23:09.577Z,9.7
2017-04-16T07:24:09.916Z,9.68
2017-04-16T07:25:09.651Z,9.53
2017-04-16T07:26:10.268Z,9.57
2017-04-16T07:27:09.717Z,9.53
2017-04-16T07:28:10.056Z,9.53
2017-04-16T07:29:10.095Z,9.53
2017-04-16T07:30:10.132Z,9.52
2017-04-16T07:31:09.861Z,9.49
2017-04-16T07:32:09.899Z,9.57
2017-04-16T07:33:10.244Z,9.6
2017-04-16T07:34:09.999Z,9.58
2017-04-16T07:35:10.005Z,9.56
2017-04-16T07:36:10.044Z,9.56
2017-04-16T07:37:10.382Z,9.53
2017-04-16T07:38:10.115Z,9.61
2017-04-16T07:39:10.149Z,9.6
2017-04-16T07:40:10.482Z,9.56
2017-04-16T07:41:10.217Z,9.6
2017-04-16T07:42:10.253Z,9.6
2017-04-16T07:43:10.592Z,9.53
2017-04-16T07:44:10.322Z,9.52
2017-04-16T07:45:10.361Z,9.58
2017-04-16T07:46:10.397Z,9.6
2017-04-16T07:47:10.735Z,9.56
2017-04-16T07:48:10.476Z,9.45
2017-04-16T07:49:10.499Z,9.56
2017-04-16T07:50:10.535Z,9.49
2017-04-16T07:51:10.585Z,9.57
2017-04-16T07:52:10.911Z,9.45
2017-04-16T07:53:10.950Z,9.49
2017-04-16T07:54:10.983Z,9.49
2017-04-16T07:55:10.715Z,9.56
2017-04-16T07:56:10.755Z,9.49
2017-04-16T07:57:10.785Z,9.5
2017-04-16T07:58:11.126Z,9.46
2017-04-16T07:59:11.166Z,9.46
2017-04-16T08:00:11.073Z,9.4
2017-04-16T08:01:10.928Z,9.39
2017-04-16T08:02:10.965Z,9.52
2017-04-16T08:03:11.312Z,9.45
2017-04-16T08:04:11.348Z,9.53
2017-04-16T08:05:11.070Z,9.57
2017-04-16T08:06:11.415Z,9.61
2017-04-16T08:07:11.457Z,9.6
2017-04-16T08:08:11.787Z,9.66
2017-04-16T08:09:11.215Z,9.71
2017-04-16T08:10:11.249Z,9.75
2017-04-16T08:11:11.586Z,9.75
2017-04-16T08:12:11.627Z,9.81
2017-04-16T08:13:11.662Z,9.93
2017-04-16T08:14:11.700Z,10
2017-04-16T08:15:11.431Z,10.17
2017-04-16T08:16:11.622Z,10.21
2017-04-16T08:17:11.805Z,10.37
2017-04-16T08:18:11.844Z,10.56
2017-04-16T08:19:11.574Z,10.78
2017-04-16T08:20:11.609Z,10.74
2017-04-16T08:21:11.646Z,10.84
2017-04-16T08:22:11.683Z,10.99
2017-04-16T08:23:12.328Z,11.21
2017-04-16T08:24:11.757Z,11.31
2017-04-16T08:25:11.793Z,11.32
2017-04-16T08:26:11.829Z,11.31
2017-04-16T08:27:11.883Z,11.21
2017-04-16T08:28:12.209Z,11.14
2017-04-16T08:29:12.246Z,11.09
2017-04-16T08:30:11.982Z,10.96
2017-04-16T08:31:12.019Z,10.86
2017-04-16T08:32:12.052Z,10.86
2017-04-16T08:33:12.089Z,10.71
2017-04-16T08:34:12.447Z,10.58
2017-04-16T08:35:12.166Z,10.52
2017-04-16T08:36:12.199Z,10.59
2017-04-16T08:37:12.241Z,10.53
2017-04-16T08:38:12.580Z,10.42
2017-04-16T08:39:12.616Z,10.37
2017-04-16T08:40:12.657Z,10.32
2017-04-16T08:41:12.383Z,10.37
2017-04-16T08:42:12.437Z,10.25
2017-04-16T08:43:12.452Z,10.25
2017-04-16T08:44:12.493Z,10.24
2017-04-16T08:45:12.526Z,10.25
2017-04-16T08:46:12.578Z,10.25
2017-04-16T08:47:12.906Z,10.37
2017-04-16T08:48:12.643Z,10.42
2017-04-16T08:49:12.964Z,10.52
2017-04-16T08:50:13.011Z,10.58
2017-04-16T08:51:12.756Z,10.56
2017-04-16T08:52:12.781Z,10.7
2017-04-16T08:53:12.816Z,10.65
2017-04-16T08:54:13.149Z,10.66
2017-04-16T08:55:12.882Z,10.6
2017-04-16T08:56:12.942Z,10.62
2017-04-16T08:57:12.960Z,10.58
2017-04-16T08:58:12.992Z,10.62
2017-04-16T08:59:13.328Z,10.53
2017-04-16T09:00:13.071Z,10.51
2017-04-16T09:01:13.403Z,10.53
2017-04-16T09:02:13.138Z,10.73
2017-04-16T09:03:13.475Z,10.84
2017-04-16T09:04:13.523Z,10.92
2017-04-16T09:05:13.247Z,11.06
2017-04-16T09:06:13.489Z,11.24
2017-04-16T09:07:13.633Z,11.56
2017-04-16T09:08:13.662Z,12.13
2017-04-16T09:09:13.403Z,12.81
2017-04-16T09:10:13.752Z,13.55
2017-04-16T09:11:13.478Z,14.29
2017-04-16T09:12:13.815Z,14.99
2017-04-16T09:13:13.567Z,15.57
2017-04-16T09:14:13.594Z,16.03
2017-04-16T09:15:13.639Z,16.56
2017-04-16T09:16:13.676Z,17.17
2017-04-16T09:17:14.034Z,17.43
2017-04-16T09:18:13.769Z,17.63
2017-04-16T09:19:14.121Z,17.48
2017-04-16T09:20:13.856Z,17.41
2017-04-16T09:21:13.889Z,17.25
2017-04-16T09:22:13.932Z,16.95
2017-04-16T09:23:14.277Z,16.75
2017-04-16T09:24:14.335Z,16.41
2017-04-16T09:25:14.065Z,16.3
2017-04-16T09:26:14.412Z,16.3
2017-04-16T09:27:14.147Z,16.42
2017-04-16T09:28:14.488Z,16.68
2017-04-16T09:29:14.543Z,16.83
2017-04-16T09:30:14.275Z,16.85
2017-04-16T09:31:14.319Z,16.67
2017-04-16T09:32:14.669Z,16.38
2017-04-16T09:33:14.706Z,16.23
2017-04-16T09:34:14.754Z,16.34
2017-04-16T09:35:14.494Z,16.6
2017-04-16T09:36:14.529Z,16.86
2017-04-16T09:37:14.579Z,16.95
2017-04-16T09:38:14.929Z,16.81
2017-04-16T09:39:14.977Z,16.75
2017-04-16T09:40:15.004Z,16.83
2017-04-16T09:41:15.061Z,16.89
2017-04-16T09:42:14.791Z,16.88
2017-04-16T09:43:14.855Z,16.8
2017-04-16T09:44:14.883Z,16.59
2017-04-16T09:45:14.938Z,16.38
2017-04-16T09:46:14.964Z,16.31
2017-04-16T09:47:15.345Z,16.3
2017-04-16T09:48:15.060Z,16.37
2017-04-16T09:49:15.406Z,16.58
2017-04-16T09:50:15.244Z,16.75
2017-04-16T09:51:15.485Z,16.81
2017-04-16T09:52:15.234Z,17.03
2017-04-16T09:53:15.284Z,17.18
2017-04-16T09:54:15.624Z,17.22
2017-04-16T09:55:15.368Z,17.32
2017-04-16T09:56:15.417Z,17.53
2017-04-16T09:57:15.460Z,17.69
2017-04-16T09:58:15.515Z,17.71
2017-04-16T09:59:15.857Z,17.88
2017-04-16T10:00:15.912Z,17.92
2017-04-16T10:01:15.949Z,18.07
2017-04-16T10:02:15.708Z,18.13
2017-04-16T10:03:15.741Z,18.27
2017-04-16T10:04:15.794Z,18.25
2017-04-16T10:05:15.838Z,18.22
2017-04-16T10:06:15.888Z,18.21
2017-04-16T10:07:15.933Z,17.84
2017-04-16T10:08:16.289Z,17.36
2017-04-16T10:09:16.042Z,16.99
2017-04-16T10:10:16.379Z,16.73
2017-04-16T10:11:16.115Z,16.38
2017-04-16T10:12:16.165Z,16.01
2017-04-16T10:13:16.514Z,15.79
2017-04-16T10:14:16.248Z,15.33
2017-04-16T10:15:16.593Z,15.03
2017-04-16T10:16:16.437Z,14.9
2017-04-16T10:17:16.383Z,14.64
2017-04-16T10:18:17.038Z,14.43
2017-04-16T10:19:16.767Z,14.39
2017-04-16T10:20:16.807Z,14.28
2017-04-16T10:21:16.547Z,14.25
2017-04-16T10:22:16.585Z,14.34
2017-04-16T10:23:16.626Z,14.42
2017-04-16T10:24:16.674Z,14.64
2017-04-16T10:25:16.717Z,14.84
2017-04-16T10:26:16.751Z,14.94
2017-04-16T10:27:16.792Z,15.12
2017-04-16T10:28:17.144Z,15.26
2017-04-16T10:29:16.878Z,15.41
2017-04-16T10:30:17.225Z,15.52
2017-04-16T10:31:17.288Z,15.74
2017-04-16T10:32:17.014Z,15.94
2017-04-16T10:33:17.054Z,16.06
2017-04-16T10:34:17.415Z,16.26
2017-04-16T10:35:17.145Z,16.52
2017-04-16T10:36:17.194Z,16.6
2017-04-16T10:37:17.251Z,16.71
2017-04-16T10:38:17.594Z,16.8
2017-04-16T10:39:17.331Z,16.83
2017-04-16T10:40:17.376Z,16.75
2017-04-16T10:41:17.429Z,16.52
2017-04-16T10:42:17.501Z,16.2
2017-04-16T10:43:17.836Z,15.99
2017-04-16T10:44:17.863Z,15.67
2017-04-16T10:45:17.607Z,15.39
2017-04-16T10:46:17.638Z,15.08
2017-04-16T10:47:17.695Z,14.75
2017-04-16T10:48:18.033Z,14.44
2017-04-16T10:49:18.093Z,14.46
2017-04-16T10:50:18.120Z,14.39
2017-04-16T10:51:17.860Z,14.52
2017-04-16T10:52:17.911Z,14.61
2017-04-16T10:53:17.947Z,14.75
2017-04-16T10:54:18.304Z,14.93
2017-04-16T10:55:18.040Z,15.08
2017-04-16T10:56:18.088Z,15.03
2017-04-16T10:57:18.136Z,15.05
2017-04-16T10:58:18.184Z,15.09
2017-04-16T10:59:18.215Z,15.19
2017-04-16T11:00:18.270Z,15.26
2017-04-16T11:01:18.611Z,15.35
2017-04-16T11:02:18.657Z,15.42
2017-04-16T11:03:18.421Z,15.52
2017-04-16T11:04:18.769Z,15.67
2017-04-16T11:05:18.519Z,15.75
2017-04-16T11:06:18.897Z,15.85
2017-04-16T11:07:18.594Z,15.89
2017-04-16T11:08:18.947Z,15.76
2017-04-16T11:09:18.686Z,15.7
2017-04-16T11:10:18.724Z,15.64
2017-04-16T11:11:19.113Z,15.59
2017-04-16T11:12:18.819Z,15.41
2017-04-16T11:13:18.866Z,15.23
2017-04-16T11:14:18.901Z,15.09
2017-04-16T11:15:19.251Z,14.9
2017-04-16T11:16:18.991Z,14.75
2017-04-16T11:17:19.039Z,14.71
2017-04-16T11:18:19.694Z,14.6
2017-04-16T11:19:19.426Z,14.49
2017-04-16T11:20:19.470Z,14.39
2017-04-16T11:21:19.199Z,14.29
2017-04-16T11:22:19.246Z,14.17
2017-04-16T11:23:19.289Z,14.17
2017-04-16T11:24:19.330Z,14.29
2017-04-16T11:25:19.375Z,14.2
2017-04-16T11:26:19.406Z,14.17
2017-04-16T11:27:19.461Z,14.17
2017-04-16T11:28:19.807Z,14.16
2017-04-16T11:29:19.535Z,14.28
2017-04-16T11:30:19.583Z,14.29
2017-04-16T11:31:19.616Z,14.35
2017-04-16T11:32:19.666Z,14.29
2017-04-16T11:33:19.707Z,14.28
2017-04-16T11:34:19.743Z,14.27
2017-04-16T11:35:19.782Z,14.17
2017-04-16T11:36:19.838Z,14.28
2017-04-16T11:37:19.874Z,14.1
2017-04-16T11:38:19.906Z,14.17
2017-04-16T11:39:20.256Z,14.07
2017-04-16T11:40:20.285Z,14.12
2017-04-16T11:41:20.042Z,14.09
2017-04-16T11:42:20.072Z,14.16
2017-04-16T11:43:20.411Z,14.02
2017-04-16T11:44:20.426Z,14.04
2017-04-16T11:45:20.189Z,14.06
2017-04-16T11:46:20.238Z,13.99
2017-04-16T11:47:20.269Z,14.06
2017-04-16T11:48:20.319Z,14.1
2017-04-16T11:49:20.663Z,14.04
2017-04-16T11:50:20.689Z,14.04
2017-04-16T11:51:20.448Z,13.98
2017-04-16T11:52:20.767Z,14.09
2017-04-16T11:53:20.821Z,14.01
2017-04-16T11:54:20.561Z,14.09
2017-04-16T11:55:20.886Z,14.17
2017-04-16T11:56:20.929Z,14.19
2017-04-16T11:57:21.022Z,14.25
2017-04-16T11:58:20.705Z,14.16
2017-04-16T11:59:21.057Z,14.12
2017-04-16T12:00:20.784Z,14.17
2017-04-16T12:01:20.903Z,14.16
2017-04-16T12:02:20.863Z,14.25
2017-04-16T12:03:21.215Z,14.28
2017-04-16T12:04:21.254Z,14.2
2017-04-16T12:05:20.988Z,14.14
2017-04-16T12:06:21.332Z,14.12
2017-04-16T12:07:21.062Z,13.96
2017-04-16T12:08:21.412Z,13.83
2017-04-16T12:09:21.439Z,13.7
2017-04-16T12:10:21.338Z,13.61
2017-04-16T12:11:21.229Z,13.47
2017-04-16T12:12:21.563Z,13.36
2017-04-16T12:13:21.607Z,13.15
2017-04-16T12:14:21.942Z,13.15
2017-04-16T12:15:21.380Z,13.03
2017-04-16T12:16:21.712Z,13.03
2017-04-16T12:17:21.453Z,13.04
2017-04-16T12:18:21.502Z,12.96
2017-04-16T12:19:21.543Z,12.99
2017-04-16T12:20:21.873Z,12.79
2017-04-16T12:21:21.910Z,12.7
2017-04-16T12:22:21.951Z,12.59
2017-04-16T12:23:21.691Z,12.49
2017-04-16T12:24:21.728Z,12.42
2017-04-16T12:25:21.759Z,12.49
2017-04-16T12:26:21.807Z,12.46
2017-04-16T12:27:21.843Z,12.48
2017-04-16T12:28:22.179Z,12.38
2017-04-16T12:29:22.527Z,12.49
2017-04-16T12:30:22.260Z,12.54
2017-04-16T12:31:21.988Z,12.62
2017-04-16T12:32:22.032Z,12.62
2017-04-16T12:33:22.074Z,12.67
2017-04-16T12:34:22.106Z,12.74
2017-04-16T12:35:22.140Z,12.71
2017-04-16T12:36:22.731Z,12.78
2017-04-16T12:37:22.456Z,12.82
2017-04-16T12:38:22.254Z,12.87
2017-04-16T12:39:22.303Z,12.87
2017-04-16T12:40:22.337Z,12.88
2017-04-16T12:41:22.376Z,12.88
2017-04-16T12:42:22.410Z,12.79
2017-04-16T12:43:22.450Z,12.81
2017-04-16T12:44:22.481Z,12.79
2017-04-16T12:45:22.529Z,12.7
2017-04-16T12:46:22.565Z,12.74
2017-04-16T12:47:22.601Z,12.81
2017-04-16T12:48:22.634Z,12.87
2017-04-16T12:49:22.682Z,12.99
2017-04-16T12:50:23.036Z,13.14
2017-04-16T12:51:22.760Z,13.25
2017-04-16T12:52:22.781Z,13.37
2017-04-16T12:53:22.819Z,13.52
2017-04-16T12:54:22.858Z,13.63
2017-04-16T12:55:23.204Z,13.69
2017-04-16T12:56:23.245Z,13.7
2017-04-16T12:57:22.975Z,13.71
2017-04-16T12:58:23.019Z,13.73
2017-04-16T12:59:23.051Z,13.7
2017-04-16T13:00:23.095Z,13.65
2017-04-16T13:01:23.135Z,13.59
2017-04-16T13:02:23.549Z,13.69
2017-04-16T13:03:23.503Z,13.56
2017-04-16T13:04:23.540Z,13.54
2017-04-16T13:05:23.277Z,13.51
2017-04-16T13:06:23.640Z,13.51
2017-04-16T13:07:23.658Z,13.54
2017-04-16T13:08:23.705Z,13.49
2017-04-16T13:09:23.728Z,13.51